Flight Track Log - Related Links

Times and Time Zones

All times are in EDT time to prevent confusion due to time zone crossing. See the KAP46 flight status page for this flight to view local times or setup timezone preferences in your user account.

Time Position Orientation Groundspeed Altitude Reporting Facility
EDT Latitude Longitude Course Direction KTS MPH feet Rate Location/Type
Sun 07:25:04 AM 44.6142 -74.7061 160° South 154 177 5,500  Level Boston Center
Sun 07:26:04 AM 44.5686 -74.6839 161° South 164 189 5,500  Level Boston Center
Sun 07:27:05 AM 44.5233 -74.6617 161° South 164 189 5,500  Level Boston Center
Sun 07:28:05 AM 44.4800 -74.6428 163° South 164 189 5,500  Level Boston Center
Sun 07:29:05 AM 44.4386 -74.6236 162° South 164 189 5,500  Level Boston Center
Sun 07:30:00 AM 44.6982 -74.7241 160° South  Level FlightAware Approximate
Sun 07:30:06 AM 44.3953 -74.5989 158° South 164 189 5,500  Level Boston Center
Sun 07:31:04 AM 44.3519 -74.5769 160° South 164 189 5,500  Level Boston Center
Sun 07:32:04 AM 44.3064 -74.5550 161° South 164 189 5,500  Level Boston Center
Sun 07:33:06 AM 44.2631 -74.5361 163° South 164 189 5,500  Level Boston Center
Sun 07:34:04 AM 44.2217 -74.5144 159° South 164 189 5,500  Level Boston Center
Sun 07:35:06 AM 44.1764 -74.4953 163° South 164 189 5,500 -50 Level Boston Center
Sun 07:36:04 AM 44.1308 -74.4678 157° South 164 189 5,400 -50 Descending Boston Center
Sun 07:37:05 AM 44.0856 -74.4489 163° South 164 189 5,400  Level Boston Center
Sun 07:38:06 AM 44.0442 -74.4300 162° South 164 189 5,400  Level Boston Center
Sun 07:39:06 AM 43.9986 -74.4056 159° South 164 189 5,400  Level Boston Center
Sun 07:40:07 AM 43.9553 -74.3839 160° South 164 189 5,400 51 Level Boston Center
Sun 07:41:04 AM 43.9119 -74.3622 160° South 164 189 5,500 51 Climbing Boston Center
Sun 07:42:05 AM 43.8664 -74.3378 159° South 164 189 5,500  Level Boston Center
Sun 07:43:06 AM 43.8208 -74.3161 161° South 164 189 5,500  Level Boston Center
Sun 07:44:04 AM 43.7753 -74.2975 164° South 164 189 5,500  Level Boston Center
Sun 07:45:04 AM 43.7319 -74.2761 160° South 164 189 5,500  Level Boston Center
Sun 07:46:04 AM 43.6864 -74.2547 161° South 164 189 5,500  Level Boston Center
Sun 07:47:04 AM 43.6431 -74.2303 158° South 164 189 5,500  Level Boston Center
Sun 07:48:04 AM 43.5975 -74.2089 161° South 164 189 5,500  Level Boston Center
Sun 07:49:04 AM 43.5519 -74.1875 161° South 164 189 5,500  Level Boston Center
Sun 07:50:05 AM 43.5086 -74.1664 161° South 164 189 5,500  Level Boston Center
Sun 07:51:05 AM 43.4631 -74.1450 161° South 164 189 5,500  Level Boston Center
Sun 07:51:57 AM 43.4236 -74.1267 161° South 170 196 5,500  Level Boston Center
Sun 07:52:51 AM 43.3844 -74.1056 159° South 170 196 5,500  Level Boston Center
Sun 07:53:50 AM 43.3408 -74.0872 163° South 169 194 5,500  Level Boston Center
Sun 07:54:53 AM 43.2997 -74.0578 152° Southeast 169 194 5,500  Level Boston Center
Sun 07:55:54 AM 43.2564 -74.0253 151° Southeast 169 194 5,500  Level Boston Center
Sun 07:56:54 AM 43.2150 -74.0014 157° South 169 194 5,500 -149 Level Boston Center
Sun 07:57:55 AM 43.1694 -73.9717 155° Southeast 175 201 5,200 -350 Descending Boston Center
Sun 07:58:54 AM 43.1219 -73.9506 162° South 183 211 4,800 -454 Descending Boston Center
Sun 07:59:54 AM 43.0703 -73.9236 159° South 185 213 4,300 -550 Descending Boston Center
Sun 08:00:54 AM 43.0206 -73.8942 157° South 190 219 3,700 -484 Descending Boston Center
Sun 08:01:58 AM 42.9708 -73.8758 165° South 186 214 3,300 -417 Descending Boston Center
Sun 08:02:49 AM 42.9294 -73.8522 157° South 182 209 2,900 -522 Descending Boston Center
Sun 08:03:53 AM 42.8817 -73.8314 162° South 182 209 2,300 -516 Descending Boston Center
Sun 08:04:57 AM 42.8256 -73.8131 167° South 184 212 1,800 -624 Descending Boston Center
Sun 08:05:58 AM 42.7861 -73.8094 176° South 123 142 1,000 -787 Descending Boston Center
Sun 08:08:00 AM 42.7491 -73.8020 170° South  Level Estimated
Sun 08:15:00 AM 42.7491 -73.8020 170° South  Level Estimated
Sun 08:16:00 AM 42.7491 -73.8020 170° South  Level Estimated
Sun 08:17:00 AM 42.7491 -73.8020 170° South  Level Estimated
Sun 08:18:00 AM 42.7491 -73.8020 170° South  Level Estimated

Login

Don't have an account? Register now (free) for customized features, flight alerts, and more!